Time;durP1;ratioP1;P1;durP2;ratioP2;P2;SDS_P1;SDS_P2;PMS_P1;PMS_P2;Temp;Humidity;BMP_temperature;BMP_pressure;BME280_temperature;BME280_humidity;BME280_pressure;Samples;Min_cycle;Max_cycle;Signal;HPM_P1;HPM_P2
2023/10/26 00:02:13;;;;;;;0.60;0.60;;;13.00;99.90;;;13.14;99.31;98634.00;4836469;28;24456;-68
2023/10/26 00:04:36;;;;;;;1.20;0.80;;;13.00;99.90;;;13.19;99.10;98629.06;4836560;28;24615;-68
2023/10/26 00:07:00;;;;;;;1.10;0.60;;;13.00;99.90;;;13.19;98.93;98634.31;4834579;28;24994;-70
2023/10/26 00:09:22;;;;;;;0.70;0.70;;;13.00;99.90;;;13.20;98.98;98646.44;4853052;28;24480;-69
2023/10/26 00:11:44;;;;;;;0.60;0.60;;;13.00;99.90;;;13.12;99.40;98649.91;4828796;28;24815;-68
2023/10/26 00:14:06;;;;;;;0.60;0.60;;;13.00;99.90;;;13.13;100.00;98659.41;4836249;28;24437;-69
2023/10/26 00:16:28;;;;;;;1.50;0.77;;;13.00;99.90;;;13.10;99.50;98646.66;4837311;28;24472;-69
2023/10/26 00:18:50;;;;;;;0.70;0.60;;;13.00;99.90;;;13.08;100.00;98643.38;4835161;28;25078;-70
2023/10/26 00:21:13;;;;;;;0.60;0.60;;;13.00;99.90;;;13.09;100.00;98654.69;4851138;28;24486;-69
2023/10/26 00:23:35;;;;;;;0.73;0.65;;;12.90;99.90;;;13.09;100.00;98649.44;4841583;28;24441;-69
2023/10/26 00:25:57;;;;;;;0.80;0.50;;;12.90;99.90;;;13.03;100.00;98656.13;4836330;28;24531;-69
2023/10/26 00:28:19;;;;;;;0.60;0.60;;;12.90;99.90;;;13.07;99.70;98657.50;4850377;28;24532;-68
2023/10/26 00:30:41;;;;;;;0.70;0.60;;;12.90;99.90;;;13.10;99.92;98651.88;4860861;28;24801;-68
2023/10/26 00:33:03;;;;;;;1.13;0.60;;;12.90;99.90;;;13.10;99.47;98654.50;4815032;28;24483;-70
2023/10/26 00:35:25;;;;;;;0.50;0.50;;;12.90;99.90;;;13.07;99.38;98654.03;4834427;28;24548;-68
2023/10/26 00:37:47;;;;;;;0.60;0.60;;;12.90;99.90;;;13.08;99.46;98651.25;4834722;28;24444;-69
2023/10/26 00:40:10;;;;;;;0.60;0.60;;;12.90;99.90;;;13.12;98.67;98655.13;4834004;28;24872;-68
2023/10/26 00:42:32;;;;;;;0.70;0.60;;;12.90;99.90;;;13.17;97.58;98658.06;4851312;28;25041;-69
2023/10/26 00:44:56;;;;;;;1.20;0.60;;;13.00;99.90;;;13.16;97.81;98653.00;4833031;28;24506;-69
2023/10/26 00:47:19;;;;;;;0.80;0.70;;;13.00;99.90;;;13.14;97.61;98661.03;4833023;28;24439;-66
2023/10/26 00:49:41;;;;;;;0.70;0.70;;;13.00;99.90;;;13.17;98.19;98662.47;4862445;28;24446;-71
2023/10/26 00:52:03;;;;;;;0.50;0.50;;;13.00;99.90;;;13.22;97.26;98674.06;4834912;28;24443;-70
2023/10/26 00:54:27;;;;;;;0.60;0.60;;;13.00;99.90;;;13.22;96.33;98675.88;4832655;28;24503;-69
2023/10/26 00:56:50;;;;;;;0.60;0.60;;;13.00;99.90;;;13.24;96.27;98673.91;4835807;28;24444;-69
2023/10/26 00:59:14;;;;;;;1.50;0.60;;;13.10;99.90;;;13.14;97.00;98673.28;4829883;28;24522;-67
2023/10/26 01:01:37;;;;;;;0.60;0.60;;;13.00;99.90;;;13.14;97.06;98676.72;4850936;28;24841;-69
2023/10/26 01:04:00;;;;;;;0.60;0.60;;;13.00;99.90;;;13.11;96.54;98681.50;4847898;28;25088;-70
2023/10/26 01:06:22;;;;;;;0.70;0.70;;;13.00;99.90;;;13.14;96.86;98687.19;4835029;28;24484;-68
2023/10/26 01:08:44;;;;;;;0.60;0.60;;;13.00;99.90;;;13.12;96.77;98690.97;4833013;28;24448;-69
2023/10/26 01:11:06;;;;;;;0.60;0.60;;;13.00;99.90;;;13.19;96.64;98692.75;4819817;28;25362;-69
2023/10/26 01:13:29;;;;;;;0.70;0.70;;;13.00;99.90;;;13.18;95.97;98690.31;4834881;28;24535;-68
2023/10/26 01:15:51;;;;;;;0.60;0.60;;;13.00;99.90;;;13.12;97.09;98696.22;4835189;28;24827;-68
2023/10/26 01:18:15;;;;;;;0.60;0.60;;;13.00;99.90;;;13.11;96.85;98697.22;4836971;28;24511;-70
2023/10/26 01:20:41;;;;;;;0.70;0.70;;;13.00;99.90;;;13.12;96.54;98702.28;4819754;28;24435;-69
2023/10/26 01:23:03;;;;;;;0.60;0.60;;;13.00;99.90;;;13.09;97.22;98696.56;4847854;28;24539;-68
2023/10/26 01:25:25;;;;;;;0.60;0.60;;;12.90;99.90;;;13.14;96.83;98702.09;4833961;28;24559;-70
2023/10/26 01:27:47;;;;;;;1.60;0.73;;;13.00;99.90;;;13.10;96.54;98704.25;4832956;28;24443;-70
2023/10/26 01:30:12;;;;;;;0.75;0.75;;;12.90;99.90;;;13.19;96.23;98707.63;4833955;28;24506;-70
2023/10/26 01:32:34;;;;;;;0.70;0.70;;;13.00;99.90;;;13.16;95.59;98708.00;4844313;28;24448;-70
2023/10/26 01:34:56;;;;;;;0.80;0.70;;;13.00;99.90;;;13.13;95.13;98700.47;4835282;28;24472;-69
2023/10/26 01:37:18;;;;;;;0.70;0.70;;;13.00;99.90;;;13.13;95.27;98705.72;4848439;28;24443;-68
2023/10/26 01:39:40;;;;;;;0.70;0.70;;;13.00;99.90;;;13.06;95.85;98702.97;4851889;28;24429;-70
2023/10/26 01:42:02;;;;;;;0.85;0.85;;;12.90;99.90;;;13.11;96.08;98703.28;4848827;28;24531;-68
2023/10/26 01:44:24;;;;;;;0.80;0.80;;;12.90;99.90;;;13.14;95.95;98707.31;4834492;28;24439;-69
2023/10/26 01:46:46;;;;;;;0.70;0.70;;;13.00;99.90;;;13.09;96.23;98694.78;4834016;28;24542;-69
2023/10/26 01:49:09;;;;;;;0.70;0.70;;;12.90;99.90;;;13.05;96.11;98696.09;4830480;28;24494;-68
2023/10/26 01:51:31;;;;;;;0.75;0.75;;;12.90;99.90;;;13.08;95.63;98690.50;4850878;28;24442;-66
2023/10/26 01:53:53;;;;;;;0.80;0.80;;;12.90;99.90;;;13.08;96.05;98689.69;4844737;28;24531;-69
2023/10/26 01:56:15;;;;;;;0.93;0.93;;;12.90;99.90;;;13.10;96.08;98695.56;4817585;28;24495;-68
2023/10/26 01:58:37;;;;;;;0.90;0.90;;;12.90;99.90;;;13.08;96.00;98703.59;4830337;28;24514;-69
2023/10/26 02:01:01;;;;;;;0.98;0.98;;;12.90;99.90;;;13.09;96.62;98699.19;4833492;28;24456;-69
2023/10/26 02:03:23;;;;;;;1.00;1.00;;;12.90;99.90;;;13.07;96.93;98698.56;4849673;28;24447;-68
2023/10/26 02:05:45;;;;;;;1.17;1.17;;;12.90;99.90;;;13.02;96.86;98696.41;4835077;28;24994;-70
2023/10/26 02:08:07;;;;;;;1.10;1.10;;;12.90;99.90;;;13.05;96.88;98701.31;4851795;28;24436;-69
2023/10/26 02:10:29;;;;;;;1.20;1.20;;;12.90;99.90;;;12.98;96.70;98713.44;4835177;28;24467;-70
2023/10/26 02:12:51;;;;;;;1.20;1.20;;;12.80;99.90;;;12.93;97.47;98710.53;4830645;28;24452;-70
2023/10/26 02:15:13;;;;;;;1.20;1.20;;;12.80;99.90;;;12.91;96.90;98703.81;4860710;28;24432;-69
2023/10/26 02:17:36;;;;;;;1.00;1.00;;;12.80;99.90;;;12.90;97.24;98717.91;4866546;28;24592;-70
2023/10/26 02:19:57;;;;;;;1.65;1.08;;;12.80;99.90;;;12.92;96.91;98713.31;4829558;28;24448;-70
2023/10/26 02:22:19;;;;;;;1.00;1.00;;;12.80;99.90;;;12.86;96.73;98720.03;4829846;28;24885;-70
2023/10/26 02:24:41;;;;;;;1.27;1.27;;;12.70;99.90;;;12.90;96.79;98725.75;4833712;28;24487;-69
2023/10/26 02:27:04;;;;;;;1.20;1.20;;;12.80;99.90;;;12.83;97.50;98722.19;4833259;28;25017;-69
2023/10/26 02:29:26;;;;;;;1.38;1.30;;;12.70;99.90;;;12.82;97.18;98726.59;4836071;28;25036;-70
2023/10/26 02:31:48;;;;;;;1.20;1.20;;;12.70;99.90;;;12.85;97.13;98721.03;4866512;28;24444;-69
2023/10/26 02:34:10;;;;;;;1.10;1.10;;;12.70;99.90;;;12.82;96.90;98716.13;4831134;28;24448;-69
2023/10/26 02:36:32;;;;;;;1.30;1.30;;;12.70;99.90;;;12.83;96.11;98716.97;4857031;28;24440;-69
2023/10/26 02:38:54;;;;;;;1.30;1.20;;;12.70;99.90;;;12.81;95.02;98719.75;4831158;28;24458;-70
2023/10/26 02:41:16;;;;;;;1.30;1.30;;;12.70;99.90;;;12.83;94.45;98714.34;4832966;28;25079;-71
2023/10/26 02:43:38;;;;;;;1.27;1.27;;;12.70;99.90;;;12.65;94.94;98714.56;4847376;28;25060;-69
2023/10/26 02:46:08;;;;;;;1.50;1.40;;;12.60;99.90;;;12.64;94.89;98712.94;4829820;28;24543;-70
2023/10/26 02:48:31;;;;;;;1.90;1.80;;;12.60;99.90;;;12.46;95.73;98715.78;4850014;28;24439;-70
2023/10/26 02:50:53;;;;;;;1.50;1.40;;;12.50;99.90;;;12.48;95.48;98722.66;4847309;28;24455;-69
2023/10/26 02:53:15;;;;;;;1.38;1.38;;;12.40;99.90;;;12.53;95.31;98720.34;4834435;28;24921;-68
2023/10/26 02:55:37;;;;;;;1.60;1.50;;;12.40;99.90;;;12.58;95.13;98720.66;4832082;28;24436;-69
2023/10/26 02:57:59;;;;;;;1.38;1.38;;;12.50;99.90;;;12.58;95.47;98721.47;4826746;28;24499;-70
2023/10/26 03:00:21;;;;;;;1.30;1.30;;;12.40;99.90;;;12.57;95.36;98726.88;4828287;28;24456;-69
2023/10/26 03:02:43;;;;;;;1.50;1.40;;;12.40;99.90;;;12.58;95.15;98724.09;4833286;28;24509;-69
2023/10/26 03:05:05;;;;;;;1.70;1.42;;;12.40;99.90;;;12.62;95.40;98733.22;4832739;28;24436;-70
2023/10/26 03:07:27;;;;;;;1.50;1.50;;;12.40;99.90;;;12.64;94.19;98723.41;4834511;28;25008;-69
2023/10/26 03:09:50;;;;;;;1.60;1.60;;;12.50;99.90;;;12.62;94.72;98724.56;4835885;28;25049;-69
2023/10/26 03:12:12;;;;;;;2.57;2.40;;;12.50;99.90;;;12.62;94.52;98728.00;4847623;28;24455;-70
2023/10/26 03:14:34;;;;;;;2.70;2.60;;;12.50;99.90;;;12.61;94.47;98728.97;4853230;28;24432;-69
2023/10/26 03:16:56;;;;;;;2.22;2.13;;;12.50;99.90;;;12.60;95.08;98726.53;4849044;28;24547;-71
2023/10/26 03:19:18;;;;;;;1.80;1.70;;;12.50;99.90;;;12.63;94.49;98713.94;4828265;28;25006;-70
2023/10/26 03:21:40;;;;;;;1.40;1.40;;;12.50;99.90;;;12.56;94.15;98701.69;4850615;28;24804;-70
2023/10/26 03:24:02;;;;;;;1.48;1.48;;;12.40;99.90;;;12.54;94.78;98722.81;4836689;28;24433;-70
2023/10/26 03:26:24;;;;;;;1.80;1.70;;;12.40;99.90;;;12.53;93.88;98722.94;4848102;28;24556;-69
2023/10/26 03:28:50;;;;;;;1.40;1.40;;;12.40;99.90;;;12.53;94.82;98715.09;4859144;28;24523;-69
2023/10/26 03:31:12;;;;;;;1.50;1.50;;;12.40;99.90;;;12.52;94.44;98708.25;4819238;28;24756;-69
2023/10/26 03:33:34;;;;;;;1.60;1.60;;;12.40;99.90;;;12.60;94.07;98713.47;4869999;28;24433;-68
2023/10/26 03:35:57;;;;;;;1.63;1.63;;;12.50;99.90;;;12.59;93.44;98724.88;4844915;28;24566;-68
2023/10/26 03:38:22;;;;;;;1.48;1.42;;;12.50;99.90;;;12.53;93.46;98720.34;4835166;28;25056;-68
2023/10/26 03:40:45;;;;;;;1.40;1.40;;;12.40;99.90;;;12.54;93.72;98714.97;4833561;28;24822;-69
2023/10/26 03:43:07;;;;;;;1.60;1.50;;;12.40;99.90;;;12.58;93.46;98712.81;4814868;28;24973;-68
2023/10/26 03:45:29;;;;;;;1.50;1.50;;;12.40;99.90;;;12.58;93.72;98718.03;4835711;28;25033;-68
2023/10/26 03:47:51;;;;;;;1.50;1.40;;;12.40;99.90;;;12.57;93.91;98722.44;4833489;28;25029;-67
2023/10/26 03:50:13;;;;;;;1.50;1.50;;;12.40;99.90;;;12.56;94.06;98725.25;4833678;28;24451;-68
2023/10/26 03:52:35;;;;;;;1.40;1.40;;;12.40;99.90;;;12.64;94.22;98719.97;4834558;28;24498;-68
2023/10/26 03:54:57;;;;;;;2.00;2.00;;;12.40;99.90;;;12.67;93.53;98724.88;4835666;28;24910;-70
2023/10/26 03:57:20;;;;;;;1.80;1.70;;;12.50;99.90;;;12.60;95.18;98726.53;4835089;28;25243;-70
2023/10/26 03:59:42;;;;;;;1.92;1.70;;;12.50;99.90;;;12.57;94.64;98729.47;4850974;28;24798;-69
2023/10/26 04:02:04;;;;;;;1.70;1.70;;;12.40;99.90;;;12.56;95.25;98725.25;4834979;28;24452;-69
2023/10/26 04:04:26;;;;;;;1.80;1.80;;;12.40;99.90;;;12.54;95.50;98719.38;4836592;28;24440;-69
2023/10/26 04:06:48;;;;;;;1.70;1.60;;;12.40;99.90;;;12.56;96.08;98723.44;4837225;28;24904;-69
2023/10/26 04:09:31;;;;;;;1.70;1.70;;;12.40;99.90;;;12.61;96.82;98725.53;4836771;28;24885;-68
2023/10/26 04:11:53;;;;;;;2.20;2.00;;;12.50;99.90;;;12.64;96.70;98717.38;4830021;28;24547;-69
2023/10/26 04:14:16;;;;;;;1.80;1.80;;;12.50;99.90;;;12.65;97.14;98724.25;4835272;28;24980;-69
2023/10/26 04:16:37;;;;;;;1.90;1.80;;;12.50;99.90;;;12.65;96.98;98726.84;4851048;28;24806;-69
2023/10/26 04:19:01;;;;;;;1.60;1.60;;;12.50;99.90;;;12.63;97.56;98729.63;4835458;28;25024;-69
2023/10/26 04:21:23;;;;;;;1.90;1.80;;;12.50;99.90;;;12.64;97.13;98728.66;4835807;28;24483;-69
2023/10/26 04:23:45;;;;;;;1.90;1.90;;;12.50;99.90;;;12.63;97.13;98726.22;4842121;28;24994;-70
2023/10/26 04:26:09;;;;;;;1.90;1.90;;;12.50;99.90;;;12.63;97.05;98721.78;4835904;28;24892;-70
2023/10/26 04:28:31;;;;;;;1.85;1.85;;;12.40;99.90;;;12.62;96.82;98714.94;4830864;28;24444;-69
2023/10/26 04:30:59;;;;;;;1.80;1.80;;;12.40;99.90;;;12.62;96.58;98720.16;4833068;28;24451;-70
2023/10/26 04:33:21;;;;;;;1.77;1.67;;;12.50;99.90;;;12.62;94.69;98716.72;4834929;28;24532;-70
2023/10/26 04:35:45;;;;;;;1.60;1.60;;;12.50;99.90;;;12.61;94.05;98717.69;4849208;28;25246;-67
2023/10/26 04:38:08;;;;;;;1.60;1.50;;;12.50;99.90;;;12.58;93.96;98723.28;4851971;28;24907;-68
2023/10/26 04:40:30;;;;;;;1.48;1.45;;;12.40;99.90;;;12.58;93.50;98723.28;4834605;28;24472;-67
2023/10/26 04:42:52;;;;;;;1.50;1.50;;;12.40;99.90;;;12.58;93.17;98712.81;4835095;28;24567;-70
2023/10/26 04:45:14;;;;;;;1.50;1.50;;;12.40;99.90;;;12.55;93.32;98713.13;4836302;28;24437;-68
2023/10/26 04:47:36;;;;;;;1.50;1.50;;;12.40;99.90;;;12.55;93.54;98715.75;4849344;28;24528;-67
2023/10/26 04:49:58;;;;;;;1.90;1.50;;;12.40;99.90;;;12.56;94.43;98709.56;4830556;28;24520;-68
2023/10/26 04:52:20;;;;;;;1.55;1.55;;;12.40;99.90;;;12.59;93.85;98714.44;4836396;28;24516;-70
2023/10/26 04:54:42;;;;;;;1.50;1.50;;;12.40;99.90;;;12.51;93.34;98707.44;4850755;28;24467;-69
2023/10/26 04:57:04;;;;;;;1.80;1.70;;;12.40;99.90;;;12.48;93.85;98713.81;4836351;28;24766;-70
2023/10/26 04:59:26;;;;;;;1.40;1.40;;;12.30;99.90;;;12.43;93.66;98713.53;4837240;28;24440;-70
2023/10/26 05:01:48;;;;;;;1.60;1.60;;;12.30;99.90;;;12.42;94.19;98711.88;4834717;28;24452;-70
2023/10/26 05:04:10;;;;;;;1.50;1.50;;;12.30;99.90;;;12.41;93.49;98712.84;4851753;28;24486;-70
2023/10/26 05:06:33;;;;;;;1.50;1.50;;;12.30;99.90;;;12.41;93.76;98712.84;4835089;28;24470;-70
2023/10/26 05:08:55;;;;;;;1.80;1.80;;;12.20;99.90;;;12.42;93.92;98711.88;4829067;28;24427;-70
2023/10/26 05:11:18;;;;;;;1.60;1.50;;;12.30;99.90;;;12.44;94.08;98709.91;4832443;28;24460;-70
2023/10/26 05:13:40;;;;;;;1.80;1.70;;;12.30;99.90;;;12.44;93.62;98703.84;4849857;28;25014;-70
2023/10/26 05:16:02;;;;;;;1.60;1.50;;;12.30;99.90;;;12.42;93.55;98711.88;4833772;28;24464;-70
2023/10/26 05:18:24;;;;;;;1.50;1.50;;;12.30;99.90;;;12.38;93.57;98702.75;4850475;28;24429;-69
2023/10/26 05:20:49;;;;;;;1.50;1.50;;;12.20;99.90;;;12.35;94.03;98708.28;4836670;28;24436;-70
2023/10/26 05:23:12;;;;;;;1.50;1.50;;;12.20;99.90;;;12.38;94.51;98696.69;4845979;28;24531;-70
2023/10/26 05:25:36;;;;;;;1.80;1.70;;;12.20;99.90;;;12.41;94.28;98697.16;4864201;28;24983;-69
2023/10/26 05:27:59;;;;;;;1.50;1.50;;;12.20;99.90;;;12.39;94.43;98695.72;4830170;28;24795;-70
2023/10/26 05:30:22;;;;;;;2.00;1.80;;;12.30;99.90;;;12.42;94.59;98692.75;4834658;28;25265;-68
2023/10/26 05:32:44;;;;;;;1.77;1.77;;;12.20;99.90;;;12.39;94.57;98690.47;4835057;28;24425;-70
2023/10/26 05:35:06;;;;;;;1.80;1.80;;;12.20;99.90;;;12.39;94.87;98693.09;4851035;28;25371;-70
2023/10/26 05:37:28;;;;;;;1.97;1.87;;;12.20;99.90;;;12.38;95.00;98694.91;4835417;28;24499;-70
2023/10/26 05:39:50;;;;;;;2.00;1.90;;;12.20;99.90;;;12.42;95.19;98682.28;4818585;28;24468;-69
2023/10/26 05:42:12;;;;;;;1.80;1.80;;;12.20;99.90;;;12.43;95.34;98682.13;4835184;28;24974;-70
2023/10/26 05:44:34;;;;;;;2.03;2.00;;;12.30;99.90;;;12.46;95.33;98675.72;4865829;28;24802;-70
2023/10/26 05:46:56;;;;;;;1.77;1.77;;;12.30;99.90;;;12.48;95.27;98680.81;4833398;28;24458;-69
2023/10/26 05:49:17;;;;;;;1.70;1.70;;;12.30;99.90;;;12.44;93.79;98670.69;4832763;28;24437;-70
2023/10/26 05:51:39;;;;;;;2.00;1.90;;;12.30;99.90;;;12.46;92.03;98676.56;4821813;28;24567;-70
2023/10/26 05:54:01;;;;;;;1.70;1.70;;;12.30;99.90;;;12.47;90.71;98669.53;4825750;28;24448;-69
2023/10/26 05:56:23;;;;;;;1.65;1.65;;;12.30;99.90;;;12.40;90.81;98666.78;4822284;28;24890;-70
2023/10/26 05:58:45;;;;;;;1.63;1.63;;;12.20;99.90;;;12.41;91.92;98664.97;4825497;28;24532;-70
2023/10/26 06:01:07;;;;;;;1.65;1.65;;;12.20;99.90;;;12.40;91.70;98661.53;4826880;28;24607;-69
2023/10/26 06:03:29;;;;;;;1.60;1.60;;;12.30;99.90;;;12.40;92.53;98664.16;4834402;28;24502;-69
2023/10/26 06:05:57;;;;;;;1.70;1.70;;;12.30;99.90;;;12.42;92.50;98662.19;4846507;28;24873;-69
2023/10/26 06:08:19;;;;;;;1.65;1.65;;;12.30;99.90;;;12.43;93.69;98669.06;4851385;28;24444;-70
2023/10/26 06:10:41;;;;;;;1.73;1.73;;;12.30;99.90;;;12.45;93.09;98667.09;4834644;28;24503;-67
2023/10/26 06:13:03;;;;;;;1.90;1.80;;;12.30;99.90;;;12.43;91.91;98671.69;4832896;28;24448;-66
2023/10/26 06:15:25;;;;;;;2.00;1.90;;;12.30;99.90;;;12.45;92.10;98672.31;4839388;28;24508;-70
2023/10/26 06:17:47;;;;;;;1.75;1.75;;;12.30;99.90;;;12.43;92.43;98681.31;4827488;28;24444;-69
2023/10/26 06:20:10;;;;;;;1.90;1.80;;;12.30;99.90;;;12.44;93.63;98681.13;4829184;28;24444;-70
2023/10/26 06:22:34;;;;;;;1.60;1.60;;;12.30;99.90;;;12.44;92.77;98690.78;4826408;28;24436;-66
2023/10/26 06:24:56;;;;;;;1.70;1.70;;;12.30;99.90;;;12.46;93.06;98694.84;4830649;28;24447;-68
2023/10/26 06:27:17;;;;;;;2.00;2.00;;;12.30;99.90;;;12.51;92.39;98699.59;4833435;28;24456;-68
2023/10/26 06:29:43;;;;;;;1.80;1.80;;;12.30;99.90;;;12.50;92.95;98700.56;4814122;28;25013;-68
2023/10/26 06:32:05;;;;;;;1.70;1.60;;;12.30;99.90;;;12.50;92.73;98697.94;4850813;28;24437;-68
2023/10/26 06:34:27;;;;;;;1.75;1.75;;;12.40;99.90;;;12.48;92.59;98700.75;4833480;28;24447;-68
2023/10/26 06:36:49;;;;;;;1.70;1.60;;;12.40;99.90;;;12.49;92.16;98709.41;4851527;28;24535;-70
2023/10/26 06:39:11;;;;;;;1.80;1.80;;;12.30;99.90;;;12.51;92.15;98704.00;4851567;28;24429;-68
2023/10/26 06:41:33;;;;;;;2.30;2.20;;;12.30;99.90;;;12.57;93.10;98705.94;4834550;28;24990;-67
2023/10/26 06:43:56;;;;;;;2.30;2.10;;;12.40;99.90;;;12.59;92.58;98696.13;4828055;28;24448;-67
2023/10/26 06:46:18;;;;;;;1.90;1.90;;;12.40;99.90;;;12.60;92.60;98695.97;4850071;28;25010;-68
2023/10/26 06:48:39;;;;;;;2.25;2.15;;;12.40;99.90;;;12.63;93.40;98694.81;4826530;28;24886;-68
2023/10/26 06:51:04;;;;;;;2.20;2.10;;;12.40;99.90;;;12.62;92.76;98688.75;4823275;28;24454;-68
2023/10/26 06:53:26;;;;;;;2.20;2.10;;;12.50;99.90;;;12.66;93.53;98691.84;4828626;28;24936;-68
2023/10/26 06:55:48;;;;;;;2.40;2.30;;;12.50;99.90;;;12.69;93.96;98688.91;4810787;28;24437;-67
2023/10/26 06:58:10;;;;;;;2.33;2.33;;;12.50;99.90;;;12.69;94.14;98692.31;4829984;28;24444;-67
2023/10/26 07:00:34;;;;;;;3.90;3.60;;;12.50;99.90;;;12.70;94.14;98685.28;4867624;28;24538;-69
2023/10/26 07:02:57;;;;;;;3.20;3.00;;;12.50;99.90;;;12.69;93.83;98688.91;4818581;28;24996;-66
2023/10/26 07:05:19;;;;;;;2.40;2.30;;;12.50;99.90;;;12.71;92.89;98689.53;4833354;28;24531;-67
2023/10/26 07:07:41;;;;;;;2.40;2.30;;;12.50;99.90;;;12.71;92.60;98682.53;4836292;28;25091;-68
2023/10/26 07:10:03;;;;;;;2.60;2.50;;;12.50;99.90;;;12.67;92.27;98683.81;4819213;28;24528;-68
2023/10/26 07:12:25;;;;;;;2.20;2.10;;;12.50;99.90;;;12.67;92.46;98685.63;4836932;28;24994;-68
2023/10/26 07:14:52;;;;;;;2.33;2.22;;;12.50;99.90;;;12.72;93.03;98675.47;4817745;28;25008;-68
2023/10/26 07:17:14;;;;;;;2.42;2.33;;;12.50;99.90;;;12.72;93.08;98673.66;4839172;28;24436;-68
2023/10/26 07:19:36;;;;;;;2.75;2.55;;;12.50;99.90;;;12.76;92.52;98677.56;4838065;28;24527;-68
2023/10/26 07:21:58;;;;;;;2.50;2.40;;;12.60;99.90;;;12.77;92.28;98681.00;4838904;28;24523;-69
2023/10/26 07:24:20;;;;;;;2.70;2.50;;;12.60;99.90;;;12.77;91.38;98673.16;4851424;28;24973;-67
2023/10/26 07:26:42;;;;;;;2.50;2.30;;;12.60;99.90;;;12.78;91.86;98669.53;4834496;28;24541;-67
2023/10/26 07:29:04;;;;;;;1.92;1.92;;;12.60;99.90;;;12.81;92.26;98669.22;4836881;28;24472;-69
2023/10/26 07:31:26;;;;;;;2.30;2.20;;;12.60;99.90;;;12.82;91.65;98660.38;4831841;28;24981;-69
2023/10/26 07:33:48;;;;;;;2.22;2.22;;;12.60;99.90;;;12.81;91.25;98662.19;4834818;28;24450;-70
2023/10/26 07:36:11;;;;;;;2.20;2.20;;;12.70;99.90;;;12.90;91.81;98657.72;4836858;28;24437;-73
2023/10/26 07:38:34;;;;;;;2.80;2.70;;;12.70;99.90;;;12.97;91.47;98661.25;4817667;28;24452;-70
2023/10/26 07:41:00;;;;;;;2.67;2.58;;;12.80;99.90;;;13.00;90.36;98664.34;4860737;28;24483;-69
2023/10/26 07:43:23;;;;;;;2.50;2.25;;;12.80;99.90;;;13.05;90.18;98663.88;4836782;28;24448;-69
2023/10/26 07:45:47;;;;;;;2.20;2.20;;;12.80;99.90;;;13.08;90.07;98666.13;4832383;28;24527;-70
2023/10/26 07:48:09;;;;;;;2.00;2.00;;;12.90;99.90;;;13.06;89.64;98661.06;4853683;28;24531;-69
2023/10/26 07:50:31;;;;;;;2.03;2.03;;;12.90;99.90;;;13.04;89.11;98665.66;4844536;28;24885;-70
2023/10/26 07:52:53;;;;;;;2.00;2.00;;;12.90;99.90;;;13.06;88.20;98660.25;4844118;28;24522;-70
2023/10/26 07:55:16;;;;;;;2.28;2.17;;;12.90;99.90;;;13.09;88.67;98659.91;4835012;28;24441;-70
2023/10/26 07:57:38;;;;;;;2.60;2.50;;;12.90;99.90;;;13.08;88.54;98653.03;4828788;28;24448;-70
2023/10/26 08:00:01;;;;;;;3.00;2.80;;;12.90;99.90;;;13.08;88.91;98656.47;4833382;28;24989;-69
2023/10/26 08:02:23;;;;;;;2.60;2.50;;;12.90;99.90;;;13.09;87.87;98655.50;4858868;28;24444;-69
2023/10/26 08:04:49;;;;;;;3.30;3.20;;;12.90;99.90;;;13.05;88.02;98656.03;4844922;28;24466;-69
2023/10/26 08:07:11;;;;;;;3.60;3.40;;;12.90;99.90;;;13.00;88.79;98653.06;4819119;28;24583;-70
2023/10/26 08:09:33;;;;;;;2.88;2.78;;;12.90;99.90;;;12.93;90.00;98649.50;4832552;28;25061;-70
2023/10/26 08:11:55;;;;;;;2.90;2.80;;;12.80;99.90;;;12.92;90.76;98650.50;4788845;28;24475;-69
2023/10/26 08:14:17;;;;;;;3.63;3.30;;;12.80;99.90;;;12.95;91.53;98644.91;4835594;28;24523;-69
2023/10/26 08:16:59;;;;;;;8.55;4.03;;;12.80;99.90;;;13.09;91.13;98634.56;4835237;28;24416;-68
2023/10/26 08:19:21;;;;;;;2.72;2.53;;;12.90;99.90;;;13.22;90.20;98631.34;4836780;28;24507;-70
2023/10/26 08:21:43;;;;;;;2.90;2.70;;;13.00;99.90;;;13.63;89.85;98643.13;4833677;28;25022;-69
2023/10/26 08:24:05;;;;;;;2.90;2.70;;;13.20;99.90;;;13.86;88.35;98640.47;4849658;28;24534;-69
2023/10/26 08:26:27;;;;;;;2.70;2.60;;;13.50;99.90;;;13.95;87.99;98640.19;4832520;28;24552;-69
2023/10/26 08:28:49;;;;;;;2.50;2.40;;;13.60;99.90;;;13.95;87.38;98649.84;4839929;28;25044;-70
2023/10/26 08:31:14;;;;;;;2.60;2.50;;;13.70;99.90;;;13.98;87.44;98652.94;4833065;28;24444;-70
2023/10/26 08:33:36;;;;;;;2.50;2.40;;;13.70;99.90;;;13.98;87.02;98652.94;4829844;28;24534;-68
2023/10/26 08:35:58;;;;;;;2.88;2.60;;;13.80;99.90;;;13.97;87.12;98643.44;4828288;28;24842;-69
2023/10/26 08:38:20;;;;;;;2.90;2.70;;;13.70;99.90;;;13.97;86.80;98655.72;4845041;28;25040;-69
2023/10/26 08:40:51;;;;;;;2.90;2.80;;;13.80;99.90;;;13.99;86.87;98659.03;4835728;28;24894;-69
2023/10/26 08:43:13;;;;;;;3.10;2.90;;;13.80;99.90;;;13.99;86.67;98664.25;4829242;28;24451;-69
2023/10/26 08:45:36;;;;;;;4.20;3.90;;;13.80;99.90;;;13.98;86.14;98662.63;4833907;28;24810;-71
2023/10/26 08:47:59;;;;;;;3.88;3.40;;;13.80;99.90;;;13.98;85.69;98671.31;4811713;28;24464;-69
2023/10/26 08:50:24;;;;;;;3.80;3.50;;;13.80;99.90;;;13.91;86.27;98669.56;4834311;28;24443;-70
2023/10/26 08:52:47;;;;;;;4.85;3.25;;;13.70;99.90;;;13.88;86.05;98686.44;4832053;28;24444;-70
2023/10/26 08:55:10;;;;;;;3.60;3.40;;;13.70;99.90;;;13.78;85.95;98690.31;4834031;28;24439;-70
2023/10/26 08:57:32;;;;;;;3.40;3.20;;;13.60;99.90;;;13.70;86.14;98704.31;4829034;28;24455;-69
2023/10/26 08:59:54;;;;;;;3.55;3.45;;;13.50;99.90;;;13.70;86.43;98720.03;4834181;28;24443;-69
2023/10/26 09:02:16;;;;;;;3.67;3.47;;;13.50;99.90;;;13.70;86.44;98735.75;4849374;28;24441;-70
2023/10/26 09:05:02;;;;;;;3.97;3.70;;;13.50;99.90;;;13.73;86.61;98738.06;4833078;28;24535;-70
2023/10/26 09:07:28;;;;;;;3.80;3.60;;;13.50;99.90;;;13.75;87.46;98746.56;4850766;28;24495;-69
2023/10/26 09:09:50;;;;;;;3.70;3.50;;;13.50;99.90;;;13.74;87.63;98742.28;4832242;28;24451;-70
2023/10/26 09:12:13;;;;;;;3.60;3.40;;;13.50;99.90;;;13.77;87.76;98744.56;4832608;28;24472;-70
2023/10/26 09:14:34;;;;;;;3.47;3.28;;;13.50;99.90;;;13.79;88.07;98749.63;4834830;28;24435;-70
2023/10/26 09:16:56;;;;;;;3.10;3.00;;;13.50;99.90;;;13.81;88.20;98747.63;4844031;28;24444;-70
2023/10/26 09:19:19;;;;;;;3.20;3.10;;;13.60;99.90;;;13.86;88.40;98745.31;4867519;28;24524;-70
2023/10/26 09:21:50;;;;;;;4.07;3.78;;;13.60;99.90;;;13.90;87.90;98730.84;4836997;28;24535;-70
2023/10/26 09:24:26;;;;;;;3.25;3.15;;;13.70;99.90;;;13.87;87.31;98729.41;4832170;28;24920;-69
2023/10/26 09:26:48;;;;;;;2.90;2.80;;;13.70;99.90;;;13.86;87.10;98745.31;4830051;28;24934;-70
2023/10/26 09:29:10;;;;;;;4.28;4.00;;;13.70;99.90;;;13.81;86.65;98735.34;4829505;28;24456;-70
2023/10/26 09:31:32;;;;;;;3.20;3.10;;;13.60;99.90;;;13.76;87.53;98734.22;4825478;28;24575;-69
2023/10/26 09:33:54;;;;;;;3.50;3.40;;;13.60;99.90;;;13.70;88.33;98735.75;4832786;28;24472;-71
2023/10/26 09:36:19;;;;;;;3.90;3.70;;;13.60;99.90;;;13.67;88.76;98733.47;4832202;28;24444;-70
2023/10/26 09:38:42;;;;;;;3.60;3.50;;;13.50;99.90;;;13.62;89.13;98740.25;4848407;28;24441;-72
2023/10/26 09:41:11;;;;;;;3.55;3.45;;;13.50;99.90;;;13.59;89.72;98735.34;4851523;28;24607;-71
2023/10/26 09:43:33;;;;;;;3.85;3.65;;;13.40;99.90;;;13.57;90.94;98727.66;4835576;28;24440;-70
2023/10/26 09:45:55;;;;;;;3.60;3.40;;;13.40;99.90;;;13.57;92.60;98717.19;4814015;28;24995;-70
2023/10/26 09:48:18;;;;;;;4.30;4.00;;;13.40;99.90;;;13.61;92.93;98718.47;4849989;28;24456;-70
2023/10/26 09:50:40;;;;;;;3.80;3.60;;;13.40;99.90;;;13.59;94.31;98707.34;4843392;28;20792;-69
2023/10/26 09:53:02;;;;;;;3.90;3.70;;;13.40;99.90;;;13.54;94.05;98703.63;4811570;28;24545;-70
2023/10/26 09:55:25;;;;;;;4.10;3.90;;;13.40;99.90;;;13.52;94.78;98689.91;4860662;28;24445;-71
2023/10/26 09:58:02;;;;;;;3.78;3.58;;;13.40;99.90;;;13.48;95.66;98697.28;4833750;28;24506;-70
2023/10/26 10:00:33;;;;;;;3.60;3.40;;;13.30;99.90;;;13.48;95.92;98704.34;4834186;28;24510;-70
2023/10/26 10:03:16;;;;;;;3.40;3.20;;;13.30;99.90;;;13.55;95.81;98703.44;4834273;28;24483;-70